Flight Track Log - Related Links

Times and Time Zones

All times are in EDT time to prevent confusion due to time zone crossing. See the SKW4727 flight status page for this flight to view local times or setup timezone preferences in your user account.

Time Position Orientation Groundspeed Altitude Reporting Facility
EDT Latitude Longitude Course Direction KTS MPH feet Rate Location/Type
Thu 02:24:00 PM 44.9333 -93.2333 125° Southeast 211 243 2,600  Level Minneapolis TRACON
Thu 02:25:18 PM 45.0300 -93.2161 North 268 308 5,400 2,143 Climbing Minneapolis Center
Thu 02:26:00 PM 44.7033 -92.6286 118° Southeast  Level Estimated
Thu 02:26:20 PM 45.0567 -93.1097 70° East 309 356 7,600  Level Minneapolis Center
Thu 02:27:00 PM 44.6392 -92.4955 124° Southeast  Level FlightAware Approximate
Thu 02:27:22 PM 45.0122 -93.0094 122° Southeast 300 345 10,100  Level Minneapolis Center
Thu 02:28:00 PM 44.5991 -92.3350 117° Southeast  Level FlightAware Approximate
Thu 02:28:24 PM 44.9533 -92.9089 130° Southeast 328 377 11,600  Level Minneapolis Center
Thu 02:29:00 PM 44.5464 -92.1927 125° Southeast  Level FlightAware Approximate
Thu 02:29:26 PM 44.8942 -92.8003 128° Southeast 344 396 13,700  Level Minneapolis Center
Thu 02:30:28 PM 44.8317 -92.6944 130° Southeast 349 402 15,600 1,742 Climbing Minneapolis Center
Thu 02:31:30 PM 44.7725 -92.5828 127° Southeast 354 407 17,300 1,500 Climbing Minneapolis Center
Thu 02:32:32 PM 44.7094 -92.4742 129° Southeast 356 410 18,700 1,258 Climbing Minneapolis Center
Thu 02:33:34 PM 44.6308 -92.3381 129° Southeast 368 423 19,900 1,065 Climbing Minneapolis Center
Thu 02:34:36 PM 44.5622 -92.2214 130° Southeast 381 438 20,900 968 Climbing Minneapolis Center
Thu 02:35:38 PM 44.4964 -92.0975 127° Southeast 392 451 21,900 528 Climbing Minneapolis Center
Thu 02:36:41 PM 44.4319 -91.9706 125° Southeast 398 458 22,000 192 Climbing Minneapolis Center
Thu 02:37:43 PM 44.3656 -91.8394 125° Southeast 408 470 22,300 629 Climbing Minneapolis Center
Thu 02:38:45 PM 44.3125 -91.6961 117° Southeast 415 478 23,300 963 Climbing Minneapolis Center
Thu 02:40:25 PM 44.2172 -91.4503 118° Southeast 411 473 24,900 630 Climbing Chicago Center
Thu 02:41:27 PM 44.1622 -91.3075 118° Southeast 418 481 25,000 48 Climbing Chicago Center
Thu 02:42:29 PM 44.1047 -91.1597 118° Southeast 431 496 25,000  Level Chicago Center
Thu 02:43:32 PM 44.0375 -90.9839 118° Southeast 433 498 25,000  Level Chicago Center
Thu 02:44:34 PM 43.9817 -90.8403 118° Southeast 428 493 25,000  Level Chicago Center
Thu 02:45:36 PM 43.9275 -90.7014 118° Southeast 416 479 25,000  Level Chicago Center
Thu 02:46:38 PM 43.8722 -90.5617 119° Southeast 415 478 25,000  Level Chicago Center
Thu 02:47:40 PM 43.8178 -90.4258 119° Southeast 410 472 25,000  Level Chicago Center
Thu 02:48:42 PM 43.7558 -90.2703 119° Southeast 408 470 25,000  Level Chicago Center
Thu 02:49:44 PM 43.6994 -90.1336 120° Southeast 409 471 25,000  Level Chicago Center
Thu 02:50:46 PM 43.6447 -89.9956 119° Southeast 411 473 25,000  Level Chicago Center
Thu 02:51:48 PM 43.5797 -89.8367 119° Southeast 408 470 25,000  Level Chicago Center
Thu 02:52:50 PM 43.5300 -89.6950 116° Southeast 411 473 25,000  Level Chicago Center
Thu 02:53:53 PM 43.4872 -89.5500 112° Southeast 409 471 25,000  Level Chicago Center
Thu 02:54:55 PM 43.4461 -89.4028 111° Southeast 409 471 25,000  Level Chicago Center
Thu 02:55:57 PM 43.4031 -89.2583 112° Southeast 410 472 25,000  Level Chicago Center
Thu 02:56:59 PM 43.3536 -89.0875 112° Southeast 411 473 25,000  Level Chicago Center
Thu 02:58:01 PM 43.3103 -88.9422 112° Southeast 410 472 25,000  Level Chicago Center
Thu 02:59:03 PM 43.2669 -88.7972 112° Southeast 412 474 25,000  Level Chicago Center
Thu 03:00:05 PM 43.2236 -88.6528 112° Southeast 413 475 25,000  Level Chicago Center
Thu 03:01:07 PM 43.1731 -88.4831 112° Southeast 417 480 25,000  Level Chicago Center
Thu 03:02:09 PM 43.1292 -88.3378 112° Southeast 416 479 25,000  Level Chicago Center
Thu 03:03:11 PM 43.0844 -88.1883 112° Southeast 425 489 25,000  Level Chicago Center
Thu 03:04:14 PM 43.0386 -88.0375 113° Southeast 429 494 25,000  Level Chicago Center
Thu 03:05:16 PM 42.9922 -87.8872 113° Southeast 430 495 25,000  Level Chicago Center
Thu 03:06:18 PM 42.9372 -87.7100 113° Southeast 435 501 25,000 -145 Level Chicago Center
Thu 03:07:20 PM 42.8892 -87.5578 113° Southeast 436 502 24,700 -484 Descending Chicago Center
Thu 03:08:22 PM 42.8403 -87.3997 113° Southeast 450 518 24,000 -339 Descending Chicago Center
Thu 03:09:24 PM 42.7897 -87.2406 113° Southeast 457 526 24,000 -435 Level Chicago Center
Thu 03:10:26 PM 42.7389 -87.0822 114° Southeast 456 525 23,100 -1,790 Descending Chicago Center
Thu 03:11:28 PM 42.6778 -86.8911 113° Southeast 472 543 20,300 -2,448 Descending Chicago Center
Thu 03:12:31 PM 42.6261 -86.7306 114° Southeast 465 535 18,000 -2,129 Descending Chicago Center
Thu 03:13:32 PM 42.5786 -86.5794 113° Southeast 447 514 15,900 -2,195 Descending Chicago Center
Thu 03:14:34 PM 42.5289 -86.4350 115° Southeast 429 494 13,500 -2,256 Descending Chicago Center
Thu 03:15:37 PM 42.4833 -86.2939 114° Southeast 411 473 11,200 -1,200 Descending Chicago Center
Thu 03:16:39 PM 42.4394 -86.1578 114° Southeast 397 457 11,000 -968 Descending Chicago Center
Thu 03:17:41 PM 42.3947 -86.0264 115° Southeast 318 366 9,200 -1,935 Descending Chicago Center
Thu 03:18:43 PM 42.3814 -85.9192 100° East 299 344 7,000 -2,081 Descending Chicago Center
Thu 03:19:45 PM 42.3875 -85.8100 86° East 294 338 4,900 -1,645 Descending Chicago Center
Thu 03:20:47 PM 42.3761 -85.7128 99° East 279 321 3,600 -1,258 Descending Chicago Center

Login

Don't have an account? Register now (free) for customized features, flight alerts, and more!